createdAt,value
2023-04-14T00:03:37.549Z,4.81
2023-04-14T00:08:35.839Z,4.73
2023-04-14T00:13:32.461Z,4.68
2023-04-14T00:18:28.926Z,4.61
2023-04-14T00:23:25.304Z,4.61
2023-04-14T00:28:21.819Z,4.50
2023-04-14T00:33:18.276Z,4.49
2023-04-14T00:38:14.695Z,4.42
2023-04-14T00:43:11.854Z,4.36
2023-04-14T00:48:09.166Z,4.34
2023-04-14T00:53:05.873Z,4.32
2023-04-14T00:58:03.358Z,4.24
2023-04-14T01:03:00.623Z,4.22
2023-04-14T01:07:57.712Z,4.20
2023-04-14T01:13:13.624Z,4.13
2023-04-14T01:18:19.688Z,4.08
2023-04-14T01:23:24.569Z,4.02
2023-04-14T01:28:43.374Z,3.92
2023-04-14T01:33:42.964Z,3.89
2023-04-14T01:38:42.541Z,3.83
2023-04-14T01:43:42.436Z,3.82
2023-04-14T01:48:41.381Z,3.80
2023-04-14T01:53:43.310Z,3.70
2023-04-14T01:58:42.286Z,3.63
2023-04-14T02:03:40.690Z,3.59
2023-04-14T02:08:41.660Z,3.56
2023-04-14T02:13:41.282Z,3.57
2023-04-14T02:18:39.731Z,3.48
2023-04-14T02:23:36.305Z,3.46
2023-04-14T02:28:36.809Z,3.40
2023-04-14T02:33:37.120Z,3.38
2023-04-14T02:38:37.477Z,3.38
2023-04-14T02:43:42.387Z,3.33
2023-04-14T02:48:42.846Z,3.34
2023-04-14T02:53:39.884Z,3.34
2023-04-14T02:58:38.939Z,3.33
2023-04-14T03:03:37.559Z,3.32
2023-04-14T03:08:35.714Z,3.25
2023-04-14T03:13:34.460Z,3.27
2023-04-14T03:18:33.210Z,3.20
2023-04-14T03:23:33.676Z,3.17
2023-04-14T03:28:37.028Z,3.15
2023-04-14T03:33:38.575Z,3.10
2023-04-14T03:38:36.895Z,3.08
2023-04-14T03:43:33.672Z,3.08
2023-04-14T03:48:34.539Z,3.03
2023-04-14T03:53:34.652Z,3.00
2023-04-14T03:58:31.833Z,2.98
2023-04-14T04:03:29.448Z,2.98
2023-04-14T04:08:26.610Z,2.95
2023-04-14T04:13:24.061Z,2.95
2023-04-14T04:23:54.120Z,2.92
2023-04-14T04:28:51.617Z,2.91
2023-04-14T04:34:00.973Z,2.90
2023-04-14T04:38:58.547Z,2.89
2023-04-14T04:43:56.741Z,2.94
2023-04-14T04:48:55.411Z,2.95
2023-04-14T04:53:52.403Z,2.94
2023-04-14T04:58:48.888Z,2.97
2023-04-14T05:03:46.059Z,2.98
2023-04-14T05:08:42.689Z,2.99
2023-04-14T05:13:39.180Z,3.06
2023-04-14T05:18:36.594Z,3.10
2023-04-14T05:23:33.926Z,3.16
2023-04-14T05:28:30.751Z,3.35
2023-04-14T05:33:27.253Z,3.42
2023-04-14T05:38:23.791Z,3.53
2023-04-14T05:43:20.174Z,3.70
2023-04-14T05:48:17.669Z,3.79
2023-04-14T05:53:15.192Z,3.86
2023-04-14T05:58:12.546Z,3.97
2023-04-14T06:03:09.219Z,4.07
2023-04-14T06:08:06.006Z,4.15
2023-04-14T06:13:02.472Z,4.26
2023-04-14T06:17:58.996Z,4.38
2023-04-14T06:22:55.556Z,4.49
2023-04-14T06:27:51.936Z,4.62
2023-04-14T06:32:51.284Z,4.74
2023-04-14T06:37:47.725Z,4.78
2023-04-14T06:42:44.145Z,4.87
2023-04-14T06:47:40.672Z,4.93
2023-04-14T06:52:37.150Z,4.98
2023-04-14T06:57:33.607Z,5.09
2023-04-14T07:02:30.118Z,5.22
2023-04-14T07:07:26.570Z,5.36
2023-04-14T07:12:23.013Z,5.50
2023-04-14T07:17:19.948Z,5.69
2023-04-14T07:22:16.736Z,5.91
2023-04-14T07:27:15.142Z,6.04
2023-04-14T07:32:13.206Z,6.21
2023-04-14T07:37:10.753Z,6.35
2023-04-14T07:42:07.383Z,6.52
2023-04-14T07:47:03.928Z,6.66
2023-04-14T07:52:01.380Z,6.79
2023-04-14T07:56:57.957Z,6.97
2023-04-14T08:01:54.476Z,7.16
2023-04-14T08:06:51.046Z,7.41
2023-04-14T08:11:47.484Z,7.71
2023-04-14T08:16:44.017Z,8.04
2023-04-14T08:21:40.656Z,8.39
2023-04-14T08:26:37.042Z,8.72
2023-04-14T08:31:33.589Z,8.98
2023-04-14T08:36:31.317Z,9.23
2023-04-14T08:41:28.357Z,9.46
2023-04-14T08:46:27.439Z,9.58
2023-04-14T08:51:39.342Z,9.88
2023-04-14T08:56:41.751Z,10.03
2023-04-14T09:01:38.812Z,10.19
2023-04-14T09:06:35.284Z,10.31
2023-04-14T09:11:31.964Z,10.60
2023-04-14T09:16:29.068Z,10.67
2023-04-14T09:21:27.474Z,10.81
2023-04-14T09:26:44.080Z,10.82
2023-04-14T09:31:40.734Z,11.11
2023-04-14T09:36:37.246Z,11.19
2023-04-14T09:41:34.149Z,11.54
2023-04-14T09:46:31.230Z,11.36
2023-04-14T09:51:29.465Z,11.39
2023-04-14T09:56:27.807Z,11.62
2023-04-14T10:01:30.926Z,12.03
2023-04-14T10:06:27.521Z,12.21
2023-04-14T10:11:32.810Z,12.48
2023-04-14T10:16:30.016Z,12.85
2023-04-14T10:21:27.737Z,12.82
2023-04-14T10:26:29.627Z,13.28
2023-04-14T10:31:34.464Z,13.39
2023-04-14T10:36:31.954Z,13.45
2023-04-14T10:41:45.372Z,13.85
2023-04-14T10:46:44.703Z,14.09
2023-04-14T10:51:41.724Z,14.09
2023-04-14T10:56:38.316Z,14.84
2023-04-14T11:01:36.057Z,14.22
2023-04-14T11:06:47.715Z,14.34
2023-04-14T11:11:44.089Z,14.28
2023-04-14T11:16:50.538Z,14.20
2023-04-14T11:21:55.788Z,14.23
2023-04-14T11:26:53.880Z,13.84
2023-04-14T11:32:06.436Z,13.87
2023-04-14T11:37:03.916Z,14.05
2023-04-14T11:42:00.495Z,13.35
2023-04-14T11:46:57.091Z,13.15
2023-04-14T11:51:56.250Z,12.93
2023-04-14T11:56:52.741Z,13.37
2023-04-14T12:01:51.348Z,13.31
2023-04-14T12:06:47.826Z,13.17
2023-04-14T12:11:54.602Z,13.05
2023-04-14T12:16:51.288Z,13.15
2023-04-14T12:21:53.019Z,13.37
2023-04-14T12:26:49.468Z,13.10
2023-04-14T12:31:46.980Z,13.29
2023-04-14T12:36:50.924Z,13.18
2023-04-14T12:41:48.248Z,13.51
2023-04-14T12:46:52.568Z,13.84
2023-04-14T12:51:49.148Z,14.13
2023-04-14T12:56:45.737Z,14.81
2023-04-14T13:01:42.711Z,15.31
2023-04-14T13:06:39.446Z,14.78
2023-04-14T13:11:35.883Z,14.36
2023-04-14T13:16:32.693Z,14.69
2023-04-14T13:21:29.170Z,14.49
2023-04-14T13:26:25.649Z,14.82
2023-04-14T13:31:22.342Z,15.51
2023-04-14T13:36:18.868Z,16.58
2023-04-14T13:41:16.175Z,17.03
2023-04-14T13:46:12.675Z,16.34
2023-04-14T13:51:09.402Z,16.80
2023-04-14T13:56:06.371Z,16.15
2023-04-14T14:01:10.725Z,15.87
2023-04-14T14:06:07.724Z,17.04
2023-04-14T14:11:07.458Z,17.35
2023-04-14T14:16:06.551Z,15.70
2023-04-14T14:21:04.152Z,14.84
2023-04-14T14:26:00.771Z,14.63
2023-04-14T14:30:57.234Z,14.06
2023-04-14T14:35:53.776Z,13.74
2023-04-14T14:40:50.214Z,13.71
2023-04-14T14:45:46.983Z,13.18
2023-04-14T14:50:43.508Z,14.19
2023-04-14T14:55:39.988Z,14.82
2023-04-14T15:00:36.542Z,14.46
2023-04-14T15:05:34.002Z,14.00
2023-04-14T15:10:30.552Z,13.70
2023-04-14T15:15:27.479Z,13.30
2023-04-14T15:20:23.917Z,15.28
2023-04-14T15:25:20.593Z,14.03
2023-04-14T15:30:17.095Z,13.83
2023-04-14T15:35:13.482Z,13.13
2023-04-14T15:40:10.804Z,12.75
2023-04-14T15:45:07.799Z,13.09
2023-04-14T15:50:10.232Z,14.72
2023-04-14T15:55:07.823Z,15.81
2023-04-14T16:00:07.263Z,16.17
2023-04-14T16:05:07.174Z,15.86
2023-04-14T16:10:04.138Z,16.28
2023-04-14T16:15:00.860Z,15.42
2023-04-14T16:19:57.330Z,14.36
2023-04-14T16:24:53.784Z,15.99
2023-04-14T16:29:50.168Z,15.58
2023-04-14T16:34:46.676Z,15.96
2023-04-14T16:39:43.129Z,15.80
2023-04-14T16:44:39.540Z,16.14
2023-04-14T16:49:36.323Z,16.04
2023-04-14T16:54:32.849Z,15.43
2023-04-14T16:59:29.606Z,14.25
2023-04-14T17:04:26.373Z,13.86
2023-04-14T17:09:23.322Z,13.26
2023-04-14T17:14:19.793Z,12.92
2023-04-14T17:19:16.922Z,12.48
2023-04-14T17:24:13.438Z,12.22
2023-04-14T17:29:10.872Z,11.57
2023-04-14T17:34:10.708Z,11.67
2023-04-14T17:39:08.257Z,11.23
2023-04-14T17:44:04.977Z,10.87
2023-04-14T17:49:01.857Z,10.51
2023-04-14T17:53:58.872Z,10.62
2023-04-14T17:58:55.538Z,10.55
2023-04-14T18:03:52.028Z,10.10
2023-04-14T18:08:48.506Z,10.00
2023-04-14T18:13:44.941Z,9.98
2023-04-14T18:18:41.322Z,9.71
2023-04-14T18:23:38.289Z,9.53
2023-04-14T18:28:35.872Z,9.46
2023-04-14T18:33:32.518Z,9.33
2023-04-14T18:38:28.954Z,9.08
2023-04-14T18:43:25.367Z,9.31
2023-04-14T18:48:21.806Z,9.22
2023-04-14T18:53:18.181Z,9.00
2023-04-14T18:58:14.574Z,8.91
2023-04-14T19:03:11.237Z,8.88
2023-04-14T19:08:07.741Z,8.85
2023-04-14T19:13:04.243Z,8.94
2023-04-14T19:18:01.341Z,9.22
2023-04-14T19:22:58.294Z,9.22
2023-04-14T19:27:55.728Z,9.33
2023-04-14T19:32:54.295Z,9.27
2023-04-14T19:37:55.417Z,9.22
2023-04-14T19:42:54.974Z,9.25
2023-04-14T19:47:52.130Z,9.33
2023-04-14T19:52:51.168Z,9.26
2023-04-14T19:57:47.595Z,9.26
2023-04-14T20:02:44.740Z,8.90
2023-04-14T20:07:41.238Z,8.64
2023-04-14T20:12:37.660Z,8.79
2023-04-14T20:17:35.163Z,8.54
2023-04-14T20:22:33.535Z,8.57
2023-04-14T20:27:29.989Z,8.59
2023-04-14T20:32:26.577Z,8.35
2023-04-14T20:37:23.478Z,8.47
2023-04-14T20:42:20.165Z,8.42
2023-04-14T20:47:16.917Z,8.53
2023-04-14T20:52:13.344Z,8.62
2023-04-14T20:57:09.947Z,8.67
2023-04-14T21:02:06.875Z,8.66
2023-04-14T21:07:03.778Z,8.36
2023-04-14T21:12:15.374Z,8.49
2023-04-14T21:17:13.489Z,8.38
2023-04-14T21:22:10.036Z,8.13
2023-04-14T21:27:06.527Z,8.32
2023-04-14T21:32:02.974Z,8.22
2023-04-14T21:36:59.426Z,8.31
2023-04-14T21:41:59.228Z,8.37
2023-04-14T21:46:55.839Z,8.28
2023-04-14T21:51:52.478Z,8.30
2023-04-14T21:56:50.126Z,8.42
2023-04-14T22:01:47.476Z,8.09
2023-04-14T22:06:44.073Z,7.94
2023-04-14T22:11:40.542Z,7.73
2023-04-14T22:16:37.137Z,7.95
2023-04-14T22:21:34.193Z,7.97
2023-04-14T22:26:31.125Z,7.87
2023-04-14T22:31:27.775Z,7.84
2023-04-14T22:36:24.761Z,7.86
2023-04-14T22:41:21.673Z,7.74
2023-04-14T22:46:24.788Z,7.80
2023-04-14T22:51:23.127Z,7.50
2023-04-14T22:56:19.586Z,7.68
2023-04-14T23:01:22.460Z,7.64
2023-04-14T23:06:20.414Z,7.40
2023-04-14T23:11:20.287Z,7.68
2023-04-14T23:16:19.938Z,7.44
2023-04-14T23:21:16.821Z,7.73
2023-04-14T23:26:17.339Z,7.61
2023-04-14T23:31:14.183Z,7.60
2023-04-14T23:36:10.763Z,7.54
2023-04-14T23:41:07.216Z,7.41
2023-04-14T23:46:21.321Z,7.15
2023-04-14T23:51:19.766Z,7.45
2023-04-14T23:56:17.499Z,7.27
